createdAt,value
2019-05-07T00:03:26.392Z,101629.86
2019-05-07T00:08:20.363Z,101624.48
2019-05-07T00:13:14.374Z,101621.66
2019-05-07T00:18:08.329Z,101616.34
2019-05-07T00:23:03.080Z,101609.95
2019-05-07T00:27:57.284Z,101613.22
2019-05-07T00:32:53.071Z,101609.95
2019-05-07T00:37:49.143Z,101602.49
2019-05-07T00:42:47.758Z,101609.27
2019-05-07T00:47:42.623Z,101612.95
2019-05-07T00:52:36.797Z,101606.59
2019-05-07T00:57:32.360Z,101604.34
2019-05-07T01:02:26.657Z,101605.52
2019-05-07T01:07:22.708Z,101603.94
2019-05-07T01:12:16.472Z,101610.93
2019-05-07T01:17:10.458Z,101605.63
2019-05-07T01:22:04.513Z,101601.38
2019-05-07T01:26:58.482Z,101597.00
2019-05-07T01:32:00.385Z,101597.44
2019-05-07T01:36:54.375Z,101596.52
2019-05-07T01:41:48.343Z,101602.44
2019-05-07T01:46:42.341Z,101596.11
2019-05-07T01:51:36.289Z,101594.75
2019-05-07T01:56:30.253Z,101595.12
2019-05-07T02:01:24.407Z,101591.41
2019-05-07T02:06:26.227Z,101591.70
2019-05-07T02:11:34.797Z,101593.61
2019-05-07T02:16:28.759Z,101591.88
2019-05-07T02:21:22.722Z,101593.06
2019-05-07T02:26:16.780Z,101593.98
2019-05-07T02:31:14.663Z,101587.95
2019-05-07T02:36:06.604Z,101588.47
2019-05-07T02:41:03.011Z,101586.45
2019-05-07T02:46:17.504Z,101582.52
2019-05-07T02:50:56.866Z,101581.27
2019-05-07T02:55:53.010Z,101582.34
2019-05-07T03:00:47.294Z,101581.41
2019-05-07T03:05:43.095Z,101587.73
2019-05-07T03:10:37.210Z,101587.18
2019-05-07T03:15:33.140Z,101588.98
2019-05-07T03:20:35.250Z,101588.14
2019-05-07T03:25:34.047Z,101583.77
2019-05-07T03:30:35.970Z,101580.34
2019-05-07T03:35:36.398Z,101583.48
2019-05-07T03:40:27.158Z,101580.84
2019-05-07T03:45:26.081Z,101581.50
2019-05-07T03:50:23.106Z,101582.52
2019-05-07T03:55:16.014Z,101584.98
2019-05-07T04:00:13.092Z,101582.52
2019-05-07T04:05:07.031Z,101577.41
2019-05-07T04:10:04.468Z,101577.96
2019-05-07T04:14:58.657Z,101582.70
2019-05-07T04:19:53.271Z,101588.06
2019-05-07T04:24:49.277Z,101581.86
2019-05-07T04:29:43.236Z,101580.83
2019-05-07T04:34:53.175Z,101577.06
2019-05-07T04:39:53.945Z,101578.76
2019-05-07T04:44:48.108Z,101573.52
2019-05-07T04:49:43.639Z,101578.34
2019-05-07T04:54:37.741Z,101575.92
2019-05-07T04:59:32.978Z,101572.37
2019-05-07T05:04:34.022Z,101574.47
2019-05-07T05:09:23.479Z,101578.60
2019-05-07T05:14:17.572Z,101582.03
2019-05-07T05:19:12.596Z,101579.13
2019-05-07T05:24:17.668Z,101563.05
2019-05-07T05:29:12.180Z,101576.25
2019-05-07T05:34:06.292Z,101569.39
2019-05-07T05:39:02.554Z,101582.63
2019-05-07T05:44:02.420Z,101581.11
2019-05-07T05:48:56.555Z,101579.89
2019-05-07T05:53:52.559Z,101576.28
2019-05-07T05:59:02.795Z,101565.49
2019-05-07T06:04:02.959Z,101569.42
2019-05-07T06:09:12.334Z,101568.50
2019-05-07T06:14:08.386Z,101566.77
2019-05-07T06:19:04.776Z,101565.23
2019-05-07T06:24:02.230Z,101566.06
2019-05-07T06:28:56.299Z,101562.11
2019-05-07T06:33:52.245Z,101562.11
2019-05-07T06:38:53.123Z,101569.55
2019-05-07T06:43:54.897Z,101569.70
2019-05-07T06:48:48.945Z,101567.88
2019-05-07T06:53:42.938Z,101564.51
2019-05-07T06:58:55.723Z,101563.16
2019-05-07T07:03:54.371Z,101560.69
2019-05-07T07:08:59.034Z,101562.02
2019-05-07T07:13:53.101Z,101561.62
2019-05-07T07:18:51.853Z,101557.27
2019-05-07T07:23:43.101Z,101562.48
2019-05-07T07:28:37.025Z,101550.95
2019-05-07T07:33:32.889Z,101545.72
2019-05-07T07:38:33.399Z,101546.42
2019-05-07T07:43:27.463Z,101542.28
2019-05-07T07:48:24.105Z,101536.11
2019-05-07T07:53:17.296Z,101536.31
2019-05-07T07:58:13.170Z,101529.42
2019-05-07T08:03:09.109Z,101532.66
2019-05-07T08:08:03.178Z,101528.27
2019-05-07T08:12:57.246Z,101524.02
2019-05-07T08:17:52.198Z,101520.88
2019-05-07T08:22:46.519Z,101518.50
2019-05-07T08:27:41.980Z,101512.02
2019-05-07T08:32:43.992Z,101513.64
2019-05-07T08:37:38.097Z,101510.25
2019-05-07T08:42:32.178Z,101502.83
2019-05-07T08:47:33.832Z,101502.86
2019-05-07T08:52:27.915Z,101506.13
2019-05-07T08:57:22.764Z,101501.22
2019-05-07T09:02:17.104Z,101502.68
2019-05-07T09:07:13.028Z,101500.65
2019-05-07T09:12:07.034Z,101505.97
2019-05-07T09:17:02.454Z,101500.96
2019-05-07T09:21:56.876Z,101496.25
2019-05-07T09:26:55.722Z,101499.70
2019-05-07T09:31:52.551Z,101492.82
2019-05-07T09:36:48.711Z,101483.52
2019-05-07T09:41:42.671Z,101486.58
2019-05-07T09:46:36.743Z,101482.38
2019-05-07T09:51:32.167Z,101472.95
2019-05-07T09:56:26.498Z,101472.11
2019-05-07T10:01:20.772Z,101468.92
2019-05-07T10:06:14.860Z,101464.66
2019-05-07T10:11:12.132Z,101465.51
2019-05-07T10:16:07.800Z,101460.78
2019-05-07T10:21:02.602Z,101459.29
2019-05-07T10:25:56.744Z,101454.47
2019-05-07T10:30:52.174Z,101453.19
2019-05-07T10:35:46.385Z,101443.94
2019-05-07T10:40:40.398Z,101442.20
2019-05-07T10:45:39.023Z,101434.60
2019-05-07T10:50:39.129Z,101427.52
2019-05-07T10:55:32.765Z,101421.88
2019-05-07T11:00:27.347Z,101419.69
2019-05-07T11:05:22.032Z,101414.97
2019-05-07T11:10:16.279Z,101410.79
2019-05-07T11:15:12.424Z,101412.41
2019-05-07T11:20:07.388Z,101411.85
2019-05-07T11:25:03.148Z,101408.95
2019-05-07T11:29:57.358Z,101402.61
2019-05-07T11:34:52.808Z,101395.01
2019-05-07T11:39:47.329Z,101392.33
2019-05-07T11:44:42.383Z,101384.75
2019-05-07T11:49:53.529Z,101371.05
2019-05-07T11:54:47.498Z,101368.38
2019-05-07T11:59:41.881Z,101364.50
2019-05-07T12:04:35.879Z,101361.77
2019-05-07T12:09:29.856Z,101355.34
2019-05-07T12:14:30.961Z,101361.56
2019-05-07T12:19:19.748Z,101340.92
2019-05-07T12:24:16.367Z,101338.37
2019-05-07T12:29:11.659Z,101334.72
2019-05-07T12:34:07.522Z,101339.39
2019-05-07T12:39:02.254Z,101333.56
2019-05-07T12:43:57.675Z,101335.88
2019-05-07T12:48:52.397Z,101329.02
2019-05-07T12:53:52.482Z,101321.07
2019-05-07T12:58:46.618Z,101319.01
2019-05-07T13:03:42.867Z,101307.89
2019-05-07T13:08:36.917Z,101304.87
2019-05-07T13:13:32.036Z,101286.33
2019-05-07T13:18:26.107Z,101286.33
2019-05-07T13:23:22.337Z,101282.67
2019-05-07T13:28:15.991Z,101265.52
2019-05-07T13:33:12.177Z,101262.15
2019-05-07T13:38:07.962Z,101261.11
2019-05-07T13:43:11.747Z,101256.64
2019-05-07T13:48:13.715Z,101255.03
2019-05-07T13:53:07.921Z,101249.37
2019-05-07T13:58:02.111Z,101250.34
2019-05-07T14:02:56.555Z,101237.48
2019-05-07T14:07:50.721Z,101235.38
2019-05-07T14:12:44.758Z,101229.15
2019-05-07T14:17:39.019Z,101223.61
2019-05-07T14:22:33.415Z,101220.38
2019-05-07T14:27:27.400Z,101211.84
2019-05-07T14:32:38.637Z,101210.63
2019-05-07T14:37:34.704Z,101210.89
2019-05-07T14:42:32.701Z,101202.17
2019-05-07T14:47:26.535Z,101201.06
2019-05-07T14:52:30.303Z,101196.47
2019-05-07T14:57:16.771Z,101193.38
2019-05-07T15:02:12.082Z,101184.66
2019-05-07T15:07:06.525Z,101180.52
2019-05-07T15:12:02.199Z,101173.64
2019-05-07T15:16:58.116Z,101165.92
2019-05-07T15:21:54.103Z,101168.27
2019-05-07T15:26:50.080Z,101161.63
2019-05-07T15:31:55.390Z,101156.73
2019-05-07T15:36:49.470Z,101145.89
2019-05-07T15:41:43.449Z,101141.87
2019-05-07T15:46:37.576Z,101139.41
2019-05-07T15:51:32.802Z,101131.29
2019-05-07T15:56:26.818Z,101127.22
2019-05-07T16:01:22.189Z,101121.37
2019-05-07T16:06:16.425Z,101116.80
2019-05-07T16:11:12.484Z,101098.09
2019-05-07T16:16:06.639Z,101100.81
2019-05-07T16:21:02.090Z,101099.24
2019-05-07T16:25:56.519Z,101094.81
2019-05-07T16:30:52.168Z,101094.95
2019-05-07T16:35:46.272Z,101093.88
2019-05-07T16:40:40.269Z,101082.42
2019-05-07T16:45:34.250Z,101075.77
2019-05-07T16:50:32.634Z,101075.83
2019-05-07T16:55:36.912Z,101068.73
2019-05-07T17:00:35.906Z,101059.99
2019-05-07T17:05:31.948Z,101067.39
2019-05-07T17:10:25.909Z,101051.70
2019-05-07T17:15:22.832Z,101056.67
2019-05-07T17:20:18.090Z,101060.98
2019-05-07T17:25:14.212Z,101056.95
2019-05-07T17:30:08.487Z,101048.05
2019-05-07T17:35:03.372Z,101045.88
2019-05-07T17:39:57.398Z,101047.68
2019-05-07T17:44:51.863Z,101054.45
2019-05-07T17:49:45.900Z,101051.17
2019-05-07T17:54:42.235Z,101053.55
2019-05-07T17:59:35.893Z,101045.74
2019-05-07T18:04:32.570Z,101044.83
2019-05-07T18:09:27.524Z,101045.20
2019-05-07T18:14:22.785Z,101039.56
2019-05-07T18:19:17.023Z,101033.31
2019-05-07T18:24:14.294Z,101034.34
2019-05-07T18:29:07.131Z,101035.60
2019-05-07T18:34:02.705Z,101034.37
2019-05-07T18:38:56.761Z,101030.98
2019-05-07T18:43:54.373Z,101029.20
2019-05-07T18:48:46.910Z,101027.98
2019-05-07T18:53:42.486Z,101021.25
2019-05-07T18:58:36.956Z,101012.34
2019-05-07T19:03:32.532Z,101011.75
2019-05-07T19:08:26.946Z,101011.97
2019-05-07T19:13:22.157Z,101015.90
2019-05-07T19:18:16.563Z,101013.66
2019-05-07T19:23:10.807Z,101021.43
2019-05-07T19:28:06.766Z,101017.09
2019-05-07T19:33:00.848Z,101019.29
2019-05-07T19:37:54.950Z,101021.63
2019-05-07T19:42:49.174Z,101022.24
2019-05-07T19:47:43.267Z,101015.45
2019-05-07T19:52:37.481Z,101012.94
2019-05-07T19:57:33.482Z,101007.39
2019-05-07T20:02:29.612Z,101002.53
2019-05-07T20:07:23.699Z,101006.31
2019-05-07T20:12:17.734Z,101003.41
2019-05-07T20:17:12.352Z,101000.16
2019-05-07T20:22:06.573Z,101000.04
2019-05-07T20:27:02.870Z,100997.38
2019-05-07T20:31:56.606Z,100991.09
2019-05-07T20:36:51.817Z,100994.83
2019-05-07T20:41:45.932Z,100979.00
2019-05-07T20:46:41.986Z,100960.78
2019-05-07T20:51:35.905Z,100957.75
2019-05-07T20:56:49.075Z,100947.48
2019-05-07T21:01:43.150Z,100935.86
2019-05-07T21:06:37.236Z,100922.44
2019-05-07T21:11:32.347Z,100927.88
2019-05-07T21:16:26.621Z,100915.06
2019-05-07T21:21:21.826Z,100914.81
2019-05-07T21:26:15.950Z,100914.95
2019-05-07T21:31:11.856Z,100911.47
2019-05-07T21:36:05.798Z,100910.59
2019-05-07T21:40:59.820Z,100917.38
2019-05-07T21:45:53.793Z,100909.90
2019-05-07T21:50:47.816Z,100898.09
2019-05-07T21:55:44.251Z,100887.93
2019-05-07T22:00:56.794Z,100882.76
2019-05-07T22:05:51.755Z,100883.00
2019-05-07T22:10:46.817Z,100874.06
2019-05-07T22:15:42.272Z,100873.49
2019-05-07T22:20:36.461Z,100862.99
2019-05-07T22:25:32.673Z,100852.73
2019-05-07T22:30:28.341Z,100851.89
2019-05-07T22:35:24.249Z,100843.33
2019-05-07T22:40:18.340Z,100830.17
2019-05-07T22:45:12.742Z,100825.59
2019-05-07T22:50:06.729Z,100809.16
2019-05-07T22:55:00.692Z,100805.79
2019-05-07T22:59:54.658Z,100801.92
2019-05-07T23:04:48.611Z,100797.47
2019-05-07T23:09:44.889Z,100786.97
2019-05-07T23:14:38.565Z,100773.91
2019-05-07T23:19:32.813Z,100769.93
2019-05-07T23:24:27.102Z,100761.97
2019-05-07T23:29:22.436Z,100755.23
2019-05-07T23:34:16.897Z,100743.76
2019-05-07T23:39:12.765Z,100734.59
2019-05-07T23:44:12.437Z,100728.34
2019-05-07T23:49:06.740Z,100721.83
2019-05-07T23:54:02.799Z,100716.52
2019-05-07T23:58:56.723Z,100710.27
